Houston, MO (65483)

11:08 AM CDT on August 01, 2014 (GMT -0500)
Bucyrus / Clara, Mo Texas County (KMOHOUST2) Elev 1161 ft | 37.31 °N, 92.07 °W | Change Station

Current weather conditions updated 21 seconds ago

Mostly Cloudy
Mostly Cloudy
76.1 °F
Feels Like 78 °F
N
2.7
Wind Variable Wind from NE

Today is forecast to be nearly the same temperature as yesterday. Mostly sunny.

Today
High -- | Low -- °F
--% Chance of Precip.
Yesterday
High -- | Low -- °F
Precip. -- in
6:12 AM 8:15 PM
Waxing Crescent, 27% visible
Pressure 30.13 in
Visibility 10.0 miles
Clouds Few 1100 ft
Mostly Cloudy 1700 ft
Heat Index 78 °F
Dew Point 66 °F
Humidity 72%
Rainfall 0.00 in
Snow Depth Not available.
UV 5 out of 12
Pollen 6.60 out of 12
Air Quality Not available.
Flu Activity Not available.
SPECI KUNO 011601Z AUTO 14003KT 10SM FEW011 BKN017 23/18 A3013 RMK AO2 T02280178

More Conditions Fewer Conditions

Pressure 30.13 in
Visibility 10.0 miles
Clouds Few 1100 ft
Mostly Cloudy 1700 ft
Heat Index 78 °F
Dew Point 66 °F
Humidity 72%
Rainfall 0.00 in
Snow Depth Not available.
UV 5 out of 12
Pollen 6.60 out of 12
Air Quality Not available.
Flu Activity Not available.
SPECI KUNO 011601Z AUTO 14003KT 10SM FEW011 BKN017 23/18 A3013 RMK AO2 T02280178

More Conditions Fewer Conditions

10-Day Weather Forecast

Almanac

Astronomy

Aug. 01, 2014 Rise Set
Actual Time 6:12 AM CDT 8:15 PM CDT
Civil Twilight 5:43 AM CDT 8:44 PM CDT
Nautical Twilight 5:08 AM CDT 9:19 PM CDT
Astronomical Twilight 4:30 AM CDT 9:57 PM CDT
Moon 11:28 AM CDT 11:08 PM CDT
Length of Visible Light 15h 00m
Length of Day
14h 03m
Tomorrow will be 1m 49s shorter.
Waxing Crescent, 27% of the Moon is Illuminated
Today
Waxing Crescent
Aug 3
First Quarter
Aug 10
Full
Aug 17
Last Quarter
Aug 25
New

Today's Extremes

State Highs State Lows

Community

WunderPhotos

Upload Photos

1,739,621 photos uploaded!

Nearby

Snow Depth

Station Depth Elevation
No new snow has been reported.

Earthquake Activity

City Distance Mag. Time & Date
No recent earthquake activity has been reported nearby.
Minimum magnitude displayed is 2.5.

Coastal Water Temperatures

Place Temperature
No Stations Reporting

Nearby Weather Stations

Station Location Temp. Heat Index Dew Point Humidity Wind Precip. Elev Updated Type
Bucyrus / Clara, Mo Texas County, Houston, MO 76.1 °F 78 °F 66 °F 72% NE  at  2.7 mph - / hr 1161 ft 11:08 AM CDT Normal
Country, Elk Creek, MO 71.6 °F 70 °F 67 °F 86% WNW  at  0.0 mph 0.00 in / hr 1332 ft 11:07 AM CDT Normal
Pierce Township Texas County, Willow Springs, MO 76.3 °F 78 °F 65 °F 68% WSW  at  1.6 mph - / hr 1364 ft 10:59 AM CDT Normal

Show More Stations Show Fewer Stations